createdAt,value
2023-07-23T00:01:01.207Z,18.20
2023-07-23T00:02:04.665Z,18.10
2023-07-23T00:03:08.960Z,18.10
2023-07-23T00:04:10.922Z,18.20
2023-07-23T00:05:13.897Z,18.20
2023-07-23T00:06:17.676Z,18.20
2023-07-23T00:07:20.469Z,18.10
2023-07-23T00:08:23.742Z,18.20
2023-07-23T00:09:26.778Z,18.20
2023-07-23T00:10:28.721Z,18.20
2023-07-23T00:11:31.701Z,18.10
2023-07-23T00:12:33.581Z,18.20
2023-07-23T00:13:36.470Z,18.10
2023-07-23T00:14:38.310Z,18.10
2023-07-23T00:15:41.280Z,18.20
2023-07-23T00:16:43.202Z,18.20
2023-07-23T00:17:45.259Z,18.20
2023-07-23T00:18:48.125Z,18.20
2023-07-23T00:19:50.090Z,18.20
2023-07-23T00:20:53.130Z,18.10
2023-07-23T00:21:55.016Z,18.20
2023-07-23T00:22:57.862Z,18.20
2023-07-23T00:24:01.399Z,18.20
2023-07-23T00:25:05.004Z,18.20
2023-07-23T00:26:06.902Z,18.20
2023-07-23T00:27:11.221Z,18.20
2023-07-23T00:28:13.114Z,18.20
2023-07-23T00:29:15.958Z,18.20
2023-07-23T00:30:17.969Z,18.20
2023-07-23T00:31:20.983Z,18.20
2023-07-23T00:32:22.997Z,18.10
2023-07-23T00:33:25.985Z,18.20
2023-07-23T00:34:27.876Z,18.20
2023-07-23T00:35:30.691Z,18.20
2023-07-23T00:36:32.566Z,18.10
2023-07-23T00:37:35.706Z,18.10
2023-07-23T00:38:37.528Z,18.20
2023-07-23T00:39:41.786Z,19.10
2023-07-23T00:40:43.611Z,18.20
2023-07-23T00:41:46.451Z,18.20
2023-07-23T00:42:48.396Z,18.20
2023-07-23T00:43:51.279Z,18.20
2023-07-23T00:44:53.373Z,18.20
2023-07-23T00:45:56.306Z,18.20
2023-07-23T00:46:59.941Z,18.20
2023-07-23T00:48:02.916Z,18.20
2023-07-23T00:49:04.935Z,18.20
2023-07-23T00:50:09.601Z,18.20
2023-07-23T00:51:11.485Z,18.20
2023-07-23T00:52:15.825Z,18.20
2023-07-23T00:53:17.934Z,18.10
2023-07-23T00:54:21.106Z,18.10
2023-07-23T00:55:24.516Z,18.20
2023-07-23T00:56:28.322Z,18.20
2023-07-23T00:57:30.520Z,18.20
2023-07-23T00:58:33.836Z,18.20
2023-07-23T00:59:36.143Z,18.20
2023-07-23T01:00:39.035Z,18.20
2023-07-23T01:01:41.038Z,18.20
2023-07-23T01:02:44.975Z,18.20
2023-07-23T01:03:47.541Z,18.20
2023-07-23T01:04:50.377Z,18.30
2023-07-23T01:05:53.161Z,18.20
2023-07-23T01:06:58.048Z,18.30
2023-07-23T01:08:00.349Z,18.30
2023-07-23T01:09:05.230Z,18.20
2023-07-23T01:10:10.219Z,18.30
2023-07-23T01:11:15.004Z,18.30
2023-07-23T01:12:18.726Z,18.30
2023-07-23T01:13:21.602Z,18.20
2023-07-23T01:14:23.614Z,18.30
2023-07-23T01:15:27.547Z,18.30
2023-07-23T01:16:29.679Z,18.20
2023-07-23T01:17:33.401Z,18.20
2023-07-23T01:18:37.145Z,18.20
2023-07-23T01:19:40.060Z,18.20
2023-07-23T01:20:42.016Z,18.20
2023-07-23T01:21:44.864Z,18.20
2023-07-23T01:22:48.043Z,18.20
2023-07-23T01:23:50.009Z,18.20
2023-07-23T01:24:52.881Z,18.20
2023-07-23T01:25:55.005Z,18.20
2023-07-23T01:26:57.873Z,18.20
2023-07-23T01:27:59.796Z,18.20
2023-07-23T01:29:02.707Z,18.20
2023-07-23T01:30:05.765Z,18.30
2023-07-23T01:31:08.741Z,18.30
2023-07-23T01:32:11.549Z,18.30
2023-07-23T01:33:13.960Z,18.40
2023-07-23T01:34:17.500Z,18.30
2023-07-23T01:35:20.721Z,18.30
2023-07-23T01:36:23.871Z,18.40
2023-07-23T01:37:26.162Z,18.30
2023-07-23T01:38:30.525Z,18.40
2023-07-23T01:39:34.076Z,18.30
2023-07-23T01:40:37.463Z,18.40
2023-07-23T01:41:39.574Z,18.40
2023-07-23T01:42:42.613Z,18.30
2023-07-23T01:43:44.712Z,18.30
2023-07-23T01:44:47.518Z,18.30
2023-07-23T01:45:49.475Z,18.30
2023-07-23T01:46:52.463Z,18.30
2023-07-23T01:47:54.414Z,18.30
2023-07-23T01:48:57.329Z,18.30
2023-07-23T01:49:59.212Z,18.30
2023-07-23T01:51:02.050Z,18.30
2023-07-23T01:52:04.612Z,18.30
2023-07-23T01:53:07.601Z,18.30
2023-07-23T01:54:10.790Z,18.30
2023-07-23T01:55:13.889Z,18.30
2023-07-23T01:56:15.855Z,18.30
2023-07-23T01:57:17.810Z,18.30
2023-07-23T01:58:20.620Z,18.30
2023-07-23T01:59:22.556Z,18.30
2023-07-23T02:00:25.513Z,18.30
2023-07-23T02:01:27.714Z,18.30
2023-07-23T02:02:30.996Z,18.30
2023-07-23T02:03:33.221Z,18.30
2023-07-23T02:04:36.035Z,18.30
2023-07-23T02:05:38.627Z,18.30
2023-07-23T02:06:41.499Z,18.30
2023-07-23T02:07:43.600Z,18.30
2023-07-23T02:08:46.467Z,18.30
2023-07-23T02:09:51.413Z,18.30
2023-07-23T02:10:59.508Z,18.30
2023-07-23T02:12:01.380Z,18.30
2023-07-23T02:13:04.240Z,18.30
2023-07-23T02:14:06.183Z,18.30
2023-07-23T02:15:11.274Z,18.30
2023-07-23T02:16:17.424Z,18.30
2023-07-23T02:17:20.329Z,18.30
2023-07-23T02:18:22.264Z,18.30
2023-07-23T02:19:25.112Z,18.30
2023-07-23T02:20:27.234Z,18.30
2023-07-23T02:21:30.383Z,18.30
2023-07-23T02:22:32.572Z,18.30
2023-07-23T02:23:35.604Z,18.30
2023-07-23T02:24:37.935Z,18.30
2023-07-23T02:25:42.442Z,18.30
2023-07-23T02:26:44.336Z,18.30
2023-07-23T02:27:47.190Z,18.30
2023-07-23T02:28:49.020Z,18.30
2023-07-23T02:29:51.893Z,18.30
2023-07-23T02:30:57.700Z,18.30
2023-07-23T02:32:00.635Z,18.30
2023-07-23T02:33:02.607Z,18.30
2023-07-23T02:34:05.456Z,18.30
2023-07-23T02:35:08.557Z,18.30
2023-07-23T02:36:11.679Z,18.20
2023-07-23T02:37:13.526Z,18.20
2023-07-23T02:38:16.511Z,18.20
2023-07-23T02:39:18.383Z,18.20
2023-07-23T02:40:21.463Z,18.20
2023-07-23T02:41:24.708Z,18.10
2023-07-23T02:42:27.935Z,18.10
2023-07-23T02:43:29.853Z,18.10
2023-07-23T02:44:32.721Z,18.10
2023-07-23T02:45:34.547Z,18.10
2023-07-23T02:46:37.438Z,18.10
2023-07-23T02:47:39.332Z,18.10
2023-07-23T02:48:42.210Z,18.10
2023-07-23T02:49:44.115Z,18.00
2023-07-23T02:50:46.938Z,18.00
2023-07-23T02:51:48.812Z,18.00
2023-07-23T02:52:50.756Z,18.10
2023-07-23T02:53:54.452Z,18.10
2023-07-23T02:54:56.382Z,18.10
2023-07-23T02:55:59.176Z,18.10
2023-07-23T02:57:02.334Z,18.20
2023-07-23T02:58:05.435Z,18.10
2023-07-23T02:59:07.373Z,18.10
2023-07-23T03:00:12.670Z,18.20
2023-07-23T03:01:14.553Z,18.10
2023-07-23T03:02:17.526Z,18.10
2023-07-23T03:03:19.513Z,18.10
2023-07-23T03:04:27.674Z,18.20
2023-07-23T03:05:29.806Z,18.20
2023-07-23T03:06:32.648Z,18.20
2023-07-23T03:07:35.996Z,18.10
2023-07-23T03:08:38.832Z,18.10
2023-07-23T03:09:40.764Z,18.10
2023-07-23T03:10:45.557Z,18.10
2023-07-23T03:11:47.453Z,18.10
2023-07-23T03:12:51.631Z,18.10
2023-07-23T03:13:53.453Z,18.10
2023-07-23T03:14:56.425Z,18.10
2023-07-23T03:15:58.296Z,18.10
2023-07-23T03:17:01.200Z,18.20
2023-07-23T03:18:03.444Z,18.10
2023-07-23T03:19:06.284Z,18.10
2023-07-23T03:20:09.696Z,18.20
2023-07-23T03:21:12.620Z,18.10
2023-07-23T03:22:14.574Z,18.10
2023-07-23T03:23:17.615Z,18.10
2023-07-23T03:24:19.538Z,18.10
2023-07-23T03:25:22.508Z,18.10
2023-07-23T03:26:24.436Z,18.00
2023-07-23T03:27:27.382Z,18.10
2023-07-23T03:28:30.620Z,18.00
2023-07-23T03:29:33.552Z,18.10
2023-07-23T03:30:35.406Z,18.10
2023-07-23T03:31:38.268Z,18.00
2023-07-23T03:32:41.757Z,18.00
2023-07-23T03:33:44.738Z,18.00
2023-07-23T03:34:46.611Z,18.00
2023-07-23T03:35:49.439Z,18.00
2023-07-23T03:36:52.926Z,18.00
2023-07-23T03:37:54.863Z,18.00
2023-07-23T03:38:57.714Z,18.00
2023-07-23T03:39:59.536Z,18.00
2023-07-23T03:41:02.344Z,18.00
2023-07-23T03:42:04.700Z,17.90
2023-07-23T03:43:08.666Z,17.90
2023-07-23T03:44:11.878Z,17.90
2023-07-23T03:45:14.774Z,17.90
2023-07-23T03:46:16.692Z,17.90
2023-07-23T03:47:21.168Z,17.90
2023-07-23T03:48:23.369Z,17.90
2023-07-23T03:49:26.194Z,17.90
2023-07-23T03:50:28.106Z,17.90
2023-07-23T03:51:31.037Z,17.90
2023-07-23T03:52:33.050Z,17.90
2023-07-23T03:53:35.917Z,17.90
2023-07-23T03:54:39.478Z,17.80
2023-07-23T03:55:42.324Z,17.80
2023-07-23T03:56:44.152Z,17.80
2023-07-23T03:57:46.968Z,17.80
2023-07-23T03:58:48.832Z,17.80
2023-07-23T03:59:53.077Z,17.80
2023-07-23T04:00:54.904Z,17.70
2023-07-23T04:01:57.881Z,17.80
2023-07-23T04:02:59.733Z,17.70
2023-07-23T04:04:02.690Z,17.70
2023-07-23T04:05:05.107Z,17.70
2023-07-23T04:06:07.963Z,17.70
2023-07-23T04:07:09.906Z,17.70
2023-07-23T04:08:12.800Z,17.70
2023-07-23T04:09:14.786Z,17.70
2023-07-23T04:10:17.699Z,17.70
2023-07-23T04:11:19.605Z,17.80
2023-07-23T04:12:24.026Z,17.80
2023-07-23T04:13:25.936Z,17.80
2023-07-23T04:14:29.208Z,17.80
2023-07-23T04:15:36.924Z,17.80
2023-07-23T04:16:39.907Z,17.80
2023-07-23T04:17:41.777Z,17.90
2023-07-23T04:18:48.602Z,17.90
2023-07-23T04:19:50.480Z,17.90
2023-07-23T04:20:53.284Z,17.90
2023-07-23T04:21:57.538Z,17.90
2023-07-23T04:23:00.442Z,17.90
2023-07-23T04:24:02.328Z,17.90
2023-07-23T04:25:05.733Z,17.80
2023-07-23T04:26:07.598Z,17.90
2023-07-23T04:27:09.414Z,17.80
2023-07-23T04:28:12.254Z,17.90
2023-07-23T04:29:14.130Z,17.90
2023-07-23T04:30:17.152Z,17.90
2023-07-23T04:31:21.033Z,17.80
2023-07-23T04:32:24.243Z,17.80
2023-07-23T04:33:26.196Z,17.90
2023-07-23T04:34:29.291Z,17.80
2023-07-23T04:35:31.254Z,17.90
2023-07-23T04:36:35.014Z,17.90
2023-07-23T04:37:37.006Z,17.90
2023-07-23T04:38:40.000Z,17.90
2023-07-23T04:39:41.891Z,17.90
2023-07-23T04:40:45.042Z,17.80
2023-07-23T04:41:47.103Z,17.90
2023-07-23T04:42:49.927Z,17.80
2023-07-23T04:43:51.788Z,17.80
2023-07-23T04:44:54.651Z,17.80
2023-07-23T04:45:56.512Z,17.90
2023-07-23T04:47:00.663Z,17.90
2023-07-23T04:48:02.831Z,17.90
2023-07-23T04:49:05.667Z,17.90
2023-07-23T04:50:10.010Z,17.90
2023-07-23T04:51:13.126Z,17.90
2023-07-23T04:52:14.970Z,17.90
2023-07-23T04:53:20.031Z,17.90
2023-07-23T04:54:21.913Z,17.90
2023-07-23T04:55:23.738Z,17.90
2023-07-23T04:56:26.551Z,17.90
2023-07-23T04:57:28.449Z,17.90
2023-07-23T04:58:31.705Z,17.90
2023-07-23T04:59:34.560Z,17.90
2023-07-23T05:00:36.623Z,18.00
2023-07-23T05:01:39.672Z,17.90
2023-07-23T05:02:42.884Z,17.90
2023-07-23T05:03:45.682Z,17.90
2023-07-23T05:04:47.558Z,18.00
2023-07-23T05:05:51.628Z,17.90
2023-07-23T05:06:53.467Z,18.00
2023-07-23T05:07:56.465Z,18.00
2023-07-23T05:08:58.500Z,18.00
2023-07-23T05:10:01.352Z,18.00
2023-07-23T05:11:04.666Z,18.00
2023-07-23T05:12:08.301Z,18.00
2023-07-23T05:13:11.963Z,18.00
2023-07-23T05:14:14.820Z,18.10
2023-07-23T05:15:17.505Z,18.00
2023-07-23T05:16:20.370Z,18.10
2023-07-23T05:17:22.372Z,18.10
2023-07-23T05:18:26.953Z,18.10
2023-07-23T05:19:28.807Z,18.10
2023-07-23T05:20:31.692Z,18.20
2023-07-23T05:21:35.811Z,18.10
2023-07-23T05:22:40.188Z,18.20
2023-07-23T05:23:44.734Z,18.10
2023-07-23T05:24:48.171Z,17.40
2023-07-23T05:25:50.156Z,17.30
2023-07-23T05:26:52.954Z,17.40
2023-07-23T05:27:54.802Z,17.50
2023-07-23T05:28:57.690Z,17.60
2023-07-23T05:29:59.764Z,17.70
2023-07-23T05:31:02.925Z,17.70
2023-07-23T05:32:05.912Z,17.80
2023-07-23T05:33:09.018Z,17.80
2023-07-23T05:34:13.429Z,17.90
2023-07-23T05:35:15.317Z,18.00
2023-07-23T05:36:18.160Z,17.90
2023-07-23T05:37:20.039Z,18.00
2023-07-23T05:38:22.937Z,18.00
2023-07-23T05:39:24.847Z,18.00
2023-07-23T05:40:27.662Z,18.00
2023-07-23T05:41:29.785Z,18.00
2023-07-23T05:42:32.752Z,18.00
2023-07-23T05:43:34.612Z,18.00
2023-07-23T05:44:37.443Z,18.00
2023-07-23T05:45:39.297Z,18.10
2023-07-23T05:46:42.298Z,18.10
2023-07-23T05:47:44.220Z,18.20
2023-07-23T05:48:47.086Z,18.20
2023-07-23T05:49:50.257Z,18.10
2023-07-23T05:50:53.080Z,18.20
2023-07-23T05:51:55.120Z,18.20
2023-07-23T05:52:57.941Z,18.20
2023-07-23T05:53:59.877Z,18.20
2023-07-23T05:55:01.813Z,18.20
2023-07-23T05:56:05.722Z,18.30
2023-07-23T05:57:07.744Z,18.20
2023-07-23T05:58:10.699Z,18.30
2023-07-23T05:59:12.651Z,18.30
2023-07-23T06:00:14.776Z,18.30
2023-07-23T06:01:17.717Z,18.30
2023-07-23T06:02:19.665Z,18.30
2023-07-23T06:03:22.500Z,18.40
2023-07-23T06:04:24.541Z,18.40
2023-07-23T06:05:28.769Z,18.40
2023-07-23T06:06:30.618Z,18.30
2023-07-23T06:07:33.687Z,18.40
2023-07-23T06:08:35.822Z,18.40
2023-07-23T06:09:38.612Z,18.40
2023-07-23T06:10:40.530Z,18.40
2023-07-23T06:11:43.655Z,18.50
2023-07-23T06:12:45.509Z,18.50
2023-07-23T06:13:48.422Z,18.50
2023-07-23T06:14:50.379Z,18.50
2023-07-23T06:15:53.284Z,18.60
2023-07-23T06:16:55.559Z,18.60
2023-07-23T06:17:58.645Z,18.60
2023-07-23T06:19:00.896Z,18.60
2023-07-23T06:20:03.781Z,18.60
2023-07-23T06:21:07.077Z,18.60
2023-07-23T06:22:09.895Z,18.60
2023-07-23T06:23:11.727Z,18.60
2023-07-23T06:24:14.525Z,18.60
2023-07-23T06:25:16.566Z,18.70
2023-07-23T06:26:19.442Z,18.60
2023-07-23T06:27:21.374Z,18.70
2023-07-23T06:28:24.408Z,18.70
2023-07-23T06:29:27.462Z,18.70
2023-07-23T06:30:30.497Z,18.70
2023-07-23T06:31:32.702Z,18.70
2023-07-23T06:32:35.742Z,18.80
2023-07-23T06:33:37.670Z,18.80
2023-07-23T06:34:40.488Z,18.80
2023-07-23T06:35:43.766Z,18.80
2023-07-23T06:36:48.333Z,18.90
2023-07-23T06:37:50.221Z,18.80
2023-07-23T06:38:53.077Z,18.80
2023-07-23T06:39:55.081Z,18.80
2023-07-23T06:40:58.352Z,18.90
2023-07-23T06:42:00.262Z,18.80
2023-07-23T06:43:03.276Z,18.90
2023-07-23T06:44:05.434Z,18.90
2023-07-23T06:45:09.618Z,18.90
2023-07-23T06:46:17.900Z,18.90
2023-07-23T06:47:21.032Z,18.90
2023-07-23T06:48:24.418Z,18.90
2023-07-23T06:49:29.999Z,19.00
2023-07-23T06:50:32.333Z,19.00
2023-07-23T06:51:35.266Z,19.00
2023-07-23T06:52:38.469Z,19.10
2023-07-23T06:53:40.290Z,19.10
2023-07-23T06:54:43.788Z,19.10
2023-07-23T06:55:59.530Z,19.10
2023-07-23T06:57:02.424Z,19.20
2023-07-23T06:58:04.294Z,19.20
2023-07-23T06:59:07.186Z,19.20
2023-07-23T07:00:09.836Z,19.20
2023-07-23T07:01:12.671Z,19.20
2023-07-23T07:02:14.550Z,19.20
2023-07-23T07:03:16.595Z,19.20
2023-07-23T07:04:20.100Z,19.20
2023-07-23T07:05:21.935Z,19.20
2023-07-23T07:06:24.733Z,19.20
2023-07-23T07:07:26.734Z,19.20
2023-07-23T07:08:31.286Z,19.20
2023-07-23T07:09:33.236Z,19.20
2023-07-23T07:10:36.041Z,19.20
2023-07-23T07:11:37.947Z,19.20
2023-07-23T07:12:40.782Z,19.30
2023-07-23T07:13:42.705Z,19.30
2023-07-23T07:14:45.499Z,19.30
2023-07-23T07:15:47.473Z,19.30
2023-07-23T07:16:49.442Z,19.30
2023-07-23T07:17:52.287Z,19.30
2023-07-23T07:18:54.568Z,19.30
2023-07-23T07:19:57.409Z,19.30
2023-07-23T07:21:00.990Z,19.40
2023-07-23T07:22:03.990Z,19.40
2023-07-23T07:23:05.826Z,19.40
2023-07-23T07:24:10.112Z,19.40
2023-07-23T07:25:12.111Z,19.40
2023-07-23T07:26:14.954Z,19.40
2023-07-23T07:27:17.673Z,19.50
2023-07-23T07:28:20.479Z,19.50
2023-07-23T07:29:22.375Z,19.50
2023-07-23T07:30:25.305Z,19.50
2023-07-23T07:31:29.856Z,19.50
2023-07-23T07:32:32.978Z,19.50
2023-07-23T07:33:34.824Z,19.50
2023-07-23T07:34:37.617Z,19.60
2023-07-23T07:35:39.540Z,19.60
2023-07-23T07:36:42.421Z,19.60
2023-07-23T07:37:44.299Z,19.60
2023-07-23T07:38:47.156Z,19.90
2023-07-23T07:39:50.381Z,19.80
2023-07-23T07:40:52.704Z,19.80
2023-07-23T07:41:55.958Z,19.70
2023-07-23T07:42:57.941Z,19.70
2023-07-23T07:44:00.873Z,19.60
2023-07-23T07:45:02.891Z,19.50
2023-07-23T07:46:07.389Z,19.50
2023-07-23T07:47:09.390Z,19.40
2023-07-23T07:48:12.287Z,19.40
2023-07-23T07:49:14.153Z,19.20
2023-07-23T07:50:17.325Z,19.20
2023-07-23T07:51:19.316Z,19.20
2023-07-23T07:52:22.486Z,19.20
2023-07-23T07:53:24.413Z,19.10
2023-07-23T07:54:27.459Z,19.20
2023-07-23T07:55:30.647Z,19.10
2023-07-23T07:56:34.119Z,19.00
2023-07-23T07:57:36.568Z,19.00
2023-07-23T07:58:39.926Z,19.00
2023-07-23T07:59:42.933Z,19.00
2023-07-23T08:00:46.270Z,19.00
2023-07-23T08:01:48.933Z,19.00
2023-07-23T08:02:54.160Z,19.00
2023-07-23T08:03:56.624Z,19.10
2023-07-23T08:05:00.439Z,19.10
2023-07-23T08:06:03.151Z,19.10
2023-07-23T08:07:07.805Z,19.00
2023-07-23T08:08:15.061Z,19.00
2023-07-23T08:09:19.618Z,19.00
2023-07-23T08:10:22.143Z,19.00
2023-07-23T08:11:27.548Z,19.00
2023-07-23T08:12:29.905Z,19.00
2023-07-23T08:13:33.623Z,19.00
2023-07-23T08:14:38.214Z,19.00
2023-07-23T08:15:41.498Z,19.00
2023-07-23T08:16:43.911Z,19.00
2023-07-23T08:17:47.407Z,19.00
2023-07-23T08:18:49.991Z,19.00
2023-07-23T08:19:53.651Z,18.90
2023-07-23T08:20:58.407Z,18.90
2023-07-23T08:22:01.937Z,18.80
2023-07-23T08:23:04.397Z,18.90
2023-07-23T08:24:08.113Z,18.80
2023-07-23T08:25:12.001Z,18.90
2023-07-23T08:26:19.473Z,18.90
2023-07-23T08:27:24.137Z,19.00
2023-07-23T08:28:30.242Z,19.10
2023-07-23T08:29:34.829Z,19.00
2023-07-23T08:30:38.062Z,19.10
2023-07-23T08:31:40.621Z,19.10
2023-07-23T08:32:44.896Z,19.10
2023-07-23T08:33:48.854Z,19.00
2023-07-23T08:34:54.296Z,19.00
2023-07-23T08:35:58.937Z,19.00
2023-07-23T08:37:02.208Z,19.00
2023-07-23T08:38:04.503Z,19.00
2023-07-23T08:39:07.984Z,19.00
2023-07-23T08:40:11.250Z,18.90
2023-07-23T08:41:25.990Z,18.90
2023-07-23T08:42:57.740Z,19.00
2023-07-23T08:44:32.413Z,19.00
2023-07-23T08:46:03.098Z,18.90
2023-07-23T08:47:12.979Z,19.00
2023-07-23T08:48:16.913Z,19.00
2023-07-23T08:49:21.164Z,19.00
2023-07-23T08:50:23.126Z,19.00
2023-07-23T08:51:27.554Z,19.00
2023-07-23T08:52:31.715Z,19.00
2023-07-23T08:53:34.546Z,19.10
2023-07-23T08:54:38.781Z,19.10
2023-07-23T08:55:42.538Z,19.10
2023-07-23T08:56:46.264Z,19.10
2023-07-23T08:57:50.540Z,19.10
2023-07-23T08:58:54.436Z,19.10
2023-07-23T08:59:59.211Z,19.20
2023-07-23T09:01:01.230Z,19.20
2023-07-23T09:02:05.036Z,19.20
2023-07-23T09:03:09.149Z,19.10
2023-07-23T09:04:12.632Z,19.10
2023-07-23T09:05:15.663Z,19.20
2023-07-23T09:06:18.547Z,19.20
2023-07-23T09:07:23.336Z,19.20
2023-07-23T09:08:25.205Z,19.20
2023-07-23T09:09:28.119Z,19.20
2023-07-23T09:10:29.969Z,19.20
2023-07-23T09:11:32.033Z,19.20
2023-07-23T09:12:34.874Z,19.20
2023-07-23T09:13:38.827Z,19.20
2023-07-23T09:14:45.445Z,19.20
2023-07-23T09:15:55.108Z,19.20
2023-07-23T09:16:58.022Z,19.30
2023-07-23T09:18:00.850Z,19.30
2023-07-23T09:19:03.895Z,19.40
2023-07-23T09:20:11.045Z,19.40
2023-07-23T09:21:22.623Z,19.40
2023-07-23T09:22:25.599Z,19.30
2023-07-23T09:23:28.668Z,19.30
2023-07-23T09:24:34.037Z,19.30
2023-07-23T09:25:35.896Z,19.30
2023-07-23T09:26:39.325Z,19.20
2023-07-23T09:27:43.393Z,19.30
2023-07-23T09:28:46.822Z,19.30
2023-07-23T09:29:49.713Z,19.30
2023-07-23T09:30:54.663Z,19.30
2023-07-23T09:31:57.527Z,19.40
2023-07-23T09:33:03.147Z,19.40
2023-07-23T09:34:06.440Z,19.30
2023-07-23T09:35:08.653Z,19.30
2023-07-23T09:36:13.675Z,19.40
2023-07-23T09:37:16.968Z,19.50
2023-07-23T09:38:20.358Z,19.50
2023-07-23T09:39:26.465Z,20.00
2023-07-23T09:40:36.438Z,20.00
2023-07-23T09:41:39.985Z,19.90
2023-07-23T09:42:45.393Z,19.90
2023-07-23T09:43:50.260Z,19.80
2023-07-23T09:44:53.319Z,19.70
2023-07-23T09:45:55.336Z,19.70
2023-07-23T09:47:00.479Z,19.60
2023-07-23T09:48:15.341Z,19.60
2023-07-23T09:49:25.817Z,19.60
2023-07-23T09:50:27.873Z,19.70
2023-07-23T09:51:33.128Z,19.80
2023-07-23T09:52:36.336Z,19.90
2023-07-23T09:53:42.120Z,19.90
2023-07-23T09:54:45.966Z,19.90
2023-07-23T09:55:49.597Z,19.90
2023-07-23T09:56:52.234Z,20.00
2023-07-23T09:57:55.643Z,20.00
2023-07-23T09:58:59.465Z,20.10
2023-07-23T10:00:04.284Z,20.10
2023-07-23T10:01:06.808Z,20.20
2023-07-23T10:02:11.630Z,20.30
2023-07-23T10:03:16.075Z,20.30
2023-07-23T10:04:20.596Z,20.40
2023-07-23T10:05:26.445Z,20.50
2023-07-23T10:06:30.222Z,20.70
2023-07-23T10:07:33.749Z,20.70
2023-07-23T10:08:37.089Z,20.90
2023-07-23T10:09:39.504Z,22.70
2023-07-23T10:10:42.364Z,22.20
2023-07-23T10:11:44.207Z,22.70
2023-07-23T10:12:47.143Z,23.60
2023-07-23T10:13:49.727Z,23.50
2023-07-23T10:14:54.100Z,23.40
2023-07-23T10:15:56.508Z,22.90
2023-07-23T10:17:01.356Z,23.20
2023-07-23T10:18:03.629Z,22.30
2023-07-23T10:19:08.077Z,23.80
2023-07-23T10:20:13.071Z,24.50
2023-07-23T10:21:16.079Z,24.20
2023-07-23T10:22:18.088Z,24.10
2023-07-23T10:23:23.573Z,24.50
2023-07-23T10:24:38.012Z,24.80
2023-07-23T10:25:41.866Z,24.50
2023-07-23T10:26:47.746Z,24.50
2023-07-23T10:27:56.829Z,24.90
2023-07-23T10:29:08.728Z,25.10
2023-07-23T10:30:21.134Z,25.30
2023-07-23T10:31:25.236Z,24.30
2023-07-23T10:32:28.819Z,23.90
2023-07-23T10:33:31.067Z,24.50
2023-07-23T10:34:43.670Z,25.20
2023-07-23T10:35:59.686Z,24.40
2023-07-23T10:37:12.806Z,24.10
2023-07-23T10:38:21.756Z,23.50
2023-07-23T10:39:24.577Z,23.20
2023-07-23T10:40:45.676Z,23.00
2023-07-23T10:41:50.947Z,22.70
2023-07-23T10:43:12.265Z,22.60
2023-07-23T10:44:22.411Z,22.60
2023-07-23T10:45:27.314Z,22.40
2023-07-23T10:46:30.264Z,22.30
2023-07-23T10:47:32.472Z,22.30
2023-07-23T10:48:43.629Z,22.20
2023-07-23T10:50:09.675Z,22.20
2023-07-23T10:51:14.275Z,22.20
2023-07-23T10:52:18.615Z,22.20
2023-07-23T10:53:21.462Z,22.20
2023-07-23T10:54:23.352Z,22.20
2023-07-23T10:55:37.135Z,22.10
2023-07-23T10:56:40.904Z,22.10
2023-07-23T10:57:44.574Z,22.00
2023-07-23T10:58:46.586Z,21.90
2023-07-23T10:59:54.425Z,21.90
2023-07-23T11:00:59.577Z,21.80
2023-07-23T11:02:06.815Z,21.70
2023-07-23T11:03:12.313Z,21.60
2023-07-23T11:04:17.377Z,21.50
2023-07-23T11:05:20.811Z,21.50
2023-07-23T11:06:30.502Z,21.40
2023-07-23T11:07:34.028Z,21.50
2023-07-23T11:08:35.903Z,21.50
2023-07-23T11:09:39.436Z,21.50
2023-07-23T11:10:48.064Z,21.40
2023-07-23T11:11:51.528Z,21.40
2023-07-23T11:12:55.313Z,21.50
2023-07-23T11:13:57.188Z,21.40
2023-07-23T11:15:00.168Z,21.40
2023-07-23T11:16:04.379Z,21.40
2023-07-23T11:17:07.352Z,21.40
2023-07-23T11:18:10.169Z,21.40
2023-07-23T11:19:13.836Z,21.40
2023-07-23T11:20:17.290Z,21.30
2023-07-23T11:21:20.298Z,21.20
2023-07-23T11:22:22.187Z,21.20
2023-07-23T11:23:27.329Z,21.20
2023-07-23T11:24:31.702Z,21.20
2023-07-23T11:25:34.712Z,21.10
2023-07-23T11:26:36.632Z,21.20
2023-07-23T11:27:39.511Z,21.20
2023-07-23T11:28:42.423Z,21.20
2023-07-23T11:29:45.334Z,21.10
2023-07-23T11:30:49.340Z,21.10
2023-07-23T11:31:53.958Z,21.00
2023-07-23T11:32:55.910Z,20.90
2023-07-23T11:33:59.620Z,20.90
2023-07-23T11:35:02.986Z,20.90
2023-07-23T11:36:05.208Z,20.90
2023-07-23T11:37:11.173Z,20.80
2023-07-23T11:38:13.045Z,20.80
2023-07-23T11:39:15.843Z,20.70
2023-07-23T11:40:20.800Z,20.70
2023-07-23T11:41:38.284Z,20.70
2023-07-23T11:42:42.441Z,20.80
2023-07-23T11:43:44.684Z,20.70
2023-07-23T11:45:01.600Z,20.80
2023-07-23T11:46:03.467Z,21.10
2023-07-23T11:47:07.819Z,21.10
2023-07-23T11:48:15.647Z,21.10
2023-07-23T11:49:18.585Z,21.00
2023-07-23T11:50:21.459Z,21.10
2023-07-23T11:51:24.570Z,21.10
2023-07-23T11:52:26.447Z,21.10
2023-07-23T11:53:34.017Z,21.20
2023-07-23T11:54:35.862Z,21.20
2023-07-23T11:55:39.147Z,21.10
2023-07-23T11:56:43.025Z,21.10
2023-07-23T11:57:45.813Z,21.10
2023-07-23T11:58:47.653Z,21.10
2023-07-23T11:59:50.458Z,21.10
2023-07-23T12:00:52.374Z,21.20
2023-07-23T12:02:03.003Z,21.20
2023-07-23T12:03:09.525Z,21.20
2023-07-23T12:04:12.705Z,21.20
2023-07-23T12:05:15.234Z,21.20
2023-07-23T12:06:18.371Z,21.30
2023-07-23T12:07:20.291Z,21.30
2023-07-23T12:08:23.207Z,21.30
2023-07-23T12:09:25.310Z,21.30
2023-07-23T12:10:28.378Z,21.20
2023-07-23T12:11:31.178Z,21.10
2023-07-23T12:12:34.970Z,21.10
2023-07-23T12:13:43.016Z,21.10
2023-07-23T12:14:45.873Z,21.00
2023-07-23T12:15:51.140Z,21.10
2023-07-23T12:16:57.607Z,21.10
2023-07-23T12:17:59.551Z,21.20
2023-07-23T12:19:05.567Z,21.20
2023-07-23T12:20:09.488Z,21.20
2023-07-23T12:21:12.309Z,21.20
2023-07-23T12:22:14.379Z,21.10
2023-07-23T12:23:17.186Z,21.10
2023-07-23T12:24:21.717Z,21.10
2023-07-23T12:25:26.565Z,21.10
2023-07-23T12:26:28.641Z,21.20
2023-07-23T12:27:31.768Z,21.20
2023-07-23T12:28:33.609Z,21.20
2023-07-23T12:29:42.817Z,21.10
2023-07-23T12:30:44.692Z,21.40
2023-07-23T12:31:49.087Z,21.10
2023-07-23T12:32:51.094Z,21.10
2023-07-23T12:33:53.936Z,21.20
2023-07-23T12:34:57.117Z,21.50
2023-07-23T12:36:00.001Z,21.40
2023-07-23T12:37:01.916Z,21.40
2023-07-23T12:38:04.757Z,21.30
2023-07-23T12:39:08.001Z,21.30
2023-07-23T12:40:11.726Z,21.30
2023-07-23T12:41:13.697Z,21.30
2023-07-23T12:42:16.554Z,21.30
2023-07-23T12:43:18.457Z,21.20
2023-07-23T12:44:22.611Z,21.20
2023-07-23T12:45:25.532Z,21.10
2023-07-23T12:46:27.815Z,21.10
2023-07-23T12:47:31.847Z,21.10
2023-07-23T12:48:33.860Z,21.10
2023-07-23T12:49:36.747Z,21.10
2023-07-23T12:50:40.045Z,21.00
2023-07-23T12:51:43.013Z,21.00
2023-07-23T12:52:44.876Z,21.00
2023-07-23T12:53:47.771Z,21.10
2023-07-23T12:54:49.813Z,21.10
2023-07-23T12:55:51.753Z,21.10
2023-07-23T12:56:54.950Z,21.10
2023-07-23T12:57:56.824Z,21.20
2023-07-23T12:58:59.969Z,21.20
2023-07-23T13:00:01.898Z,21.20
2023-07-23T13:01:04.876Z,21.20
2023-07-23T13:02:07.457Z,21.10
2023-07-23T13:03:10.766Z,21.20
2023-07-23T13:04:12.918Z,21.10
2023-07-23T13:05:15.973Z,21.20
2023-07-23T13:06:19.491Z,21.10
2023-07-23T13:07:22.303Z,21.10
2023-07-23T13:08:24.173Z,21.10
2023-07-23T13:09:27.133Z,21.20
2023-07-23T13:10:29.030Z,21.20
2023-07-23T13:11:31.925Z,21.20
2023-07-23T13:12:33.790Z,21.10
2023-07-23T13:13:36.608Z,21.20
2023-07-23T13:14:38.438Z,21.20
2023-07-23T13:15:41.255Z,21.10
2023-07-23T13:16:43.324Z,21.10
2023-07-23T13:17:48.670Z,21.10
2023-07-23T13:18:50.643Z,21.10
2023-07-23T13:19:53.544Z,21.20
2023-07-23T13:20:55.482Z,21.10
2023-07-23T13:21:59.784Z,21.10
2023-07-23T13:23:01.834Z,21.20
2023-07-23T13:24:05.064Z,21.20
2023-07-23T13:25:07.542Z,21.20
2023-07-23T13:26:10.687Z,21.30
2023-07-23T13:27:12.532Z,21.30
2023-07-23T13:28:16.197Z,21.40
2023-07-23T13:29:18.060Z,21.50
2023-07-23T13:30:20.910Z,21.50
2023-07-23T13:31:22.912Z,21.50
2023-07-23T13:32:25.878Z,21.40
2023-07-23T13:33:27.798Z,21.40
2023-07-23T13:34:31.482Z,21.30
2023-07-23T13:35:33.433Z,21.30
2023-07-23T13:36:36.622Z,21.30
2023-07-23T13:37:39.858Z,21.30
2023-07-23T13:38:42.721Z,21.30